Time;durP1;ratioP1;P1;durP2;ratioP2;P2;SDS_P1;SDS_P2;PMS_P1;PMS_P2;Temp;Humidity;BMP_temperature;BMP_pressure;BME280_temperature;BME280_humidity;BME280_pressure;Samples;Min_cycle;Max_cycle;Signal;HPM_P1;HPM_P2
2024/03/27 00:01:23;;;;;;;;;;;;;;;18.09;44.13;96835.63;10331532;28;885;-72
2024/03/27 00:06:19;;;;;;;;;;;;;;;18.09;44.12;96839.06;10329686;28;1894;-72
2024/03/27 00:11:15;;;;;;;;;;;;;;;18.08;43.96;96832.16;10330151;28;789;-72
2024/03/27 00:16:11;;;;;;;;;;;;;;;18.06;43.90;96818.28;10330311;28;925;-72
2024/03/27 00:21:07;;;;;;;;;;;;;;;18.06;44.13;96815.63;10330494;28;802;-72
2024/03/27 00:26:02;;;;;;;;;;;;;;;18.04;44.22;96814.94;10329859;28;1890;-72
2024/03/27 00:30:58;;;;;;;;;;;;;;;18.04;44.16;96806.19;10329630;28;1313;-72
2024/03/27 00:35:54;;;;;;;;;;;;;;;18.04;44.14;96799.13;10329935;28;827;-72
2024/03/27 00:40:50;;;;;;;;;;;;;;;18.03;44.03;96801.91;10329452;28;1000;-72
2024/03/27 00:45:46;;;;;;;;;;;;;;;18.02;44.07;96808.97;10329435;28;1968;-72
2024/03/27 00:50:42;;;;;;;;;;;;;;;18.01;44.23;96798.59;10328851;28;1067;-72
2024/03/27 00:55:38;;;;;;;;;;;;;;;18.00;43.92;96797.75;10327862;28;1016;-72
2024/03/27 01:00:33;;;;;;;;;;;;;;;18.00;44.17;96795.13;10328373;28;806;-72
2024/03/27 01:05:29;;;;;;;;;;;;;;;17.99;44.13;96784.72;10328330;28;1905;-73
2024/03/27 01:10:25;;;;;;;;;;;;;;;18.00;44.21;96783.72;10327554;28;845;-72
2024/03/27 01:15:22;;;;;;;;;;;;;;;17.98;44.25;96770.69;10327741;28;878;-72
2024/03/27 01:20:18;;;;;;;;;;;;;;;17.97;44.33;96769.03;10327557;28;889;-72
2024/03/27 01:25:13;;;;;;;;;;;;;;;17.96;44.26;96764.72;10327225;28;1979;-72
2024/03/27 01:30:09;;;;;;;;;;;;;;;17.96;44.00;96756.81;10326519;28;1245;-72
2024/03/27 01:35:05;;;;;;;;;;;;;;;17.94;44.00;96746.41;10327507;28;858;-72
2024/03/27 01:40:01;;;;;;;;;;;;;;;17.93;44.15;96747.41;10327005;28;889;-72
2024/03/27 01:44:57;;;;;;;;;;;;;;;17.95;44.20;96749.91;10326501;28;1917;-72
2024/03/27 01:49:53;;;;;;;;;;;;;;;17.94;44.14;96748.22;10327462;28;787;-73
2024/03/27 01:54:48;;;;;;;;;;;;;;;17.93;44.06;96733.41;10326284;28;763;-72
2024/03/27 01:59:44;;;;;;;;;;;;;;;17.91;44.12;96728.25;10326101;28;768;-72
2024/03/27 02:04:40;;;;;;;;;;;;;;;17.92;44.19;96723.81;10325881;28;1906;-73
2024/03/27 02:09:36;;;;;;;;;;;;;;;17.91;44.02;96727.44;10326839;28;862;-72
2024/03/27 02:14:32;;;;;;;;;;;;;;;17.90;44.14;96721.34;10325659;28;976;-73
2024/03/27 02:19:28;;;;;;;;;;;;;;;17.90;44.08;96718.69;10325914;28;905;-72
2024/03/27 02:24:24;;;;;;;;;;;;;;;17.89;44.36;96718.81;10326044;28;1968;-72
2024/03/27 02:29:20;;;;;;;;;;;;;;;17.88;44.23;96718.00;10325158;28;1383;-72
2024/03/27 02:34:16;;;;;;;;;;;;;;;17.88;44.02;96722.44;10325933;28;858;-72
2024/03/27 02:39:11;;;;;;;;;;;;;;;17.87;44.23;96726.88;10327368;28;1036;-72
2024/03/27 02:44:07;;;;;;;;;;;;;;;17.88;44.26;96740.91;10333572;28;1913;-72
2024/03/27 02:49:03;;;;;;;;;;;;;;;17.87;44.20;96731.34;10333521;28;974;-73
2024/03/27 02:53:59;;;;;;;;;;;;;;;17.86;44.31;96734.91;10333254;28;810;-72
2024/03/27 02:58:55;;;;;;;;;;;;;;;17.85;44.25;96718.28;10333069;28;803;-72
2024/03/27 03:03:51;;;;;;;;;;;;;;;17.86;44.16;96725.22;10333041;28;1902;-72
2024/03/27 03:08:47;;;;;;;;;;;;;;;17.86;44.20;96729.66;10333323;28;802;-72
2024/03/27 03:13:43;;;;;;;;;;;;;;;17.85;44.07;96734.09;10332927;28;946;-72
2024/03/27 03:18:38;;;;;;;;;;;;;;;17.84;44.19;96723.69;10332819;28;851;-72
2024/03/27 03:23:35;;;;;;;;;;;;;;;17.84;44.02;96713.16;10332568;28;1901;-72
2024/03/27 03:28:31;;;;;;;;;;;;;;;17.83;44.06;96716.78;10331993;28;1136;-72
2024/03/27 03:33:26;;;;;;;;;;;;;;;17.82;43.99;96696.69;10333061;28;932;-73
2024/03/27 03:38:22;;;;;;;;;;;;;;;17.81;44.15;96702.91;10331529;28;913;-72
2024/03/27 03:43:19;;;;;;;;;;;;;;;17.81;44.02;96706.34;10330674;28;1922;-73
2024/03/27 03:48:15;;;;;;;;;;;;;;;17.80;44.12;96701.25;10331443;28;971;-72
2024/03/27 03:53:11;;;;;;;;;;;;;;;17.80;44.08;96701.25;10330122;28;799;-72
2024/03/27 03:58:07;;;;;;;;;;;;;;;17.80;44.17;96706.50;10330246;28;922;-72
2024/03/27 04:03:02;;;;;;;;;;;;;;;17.79;44.15;96694.25;10330114;28;1956;-72
2024/03/27 04:07:58;;;;;;;;;;;;;;;17.79;44.22;96675.81;10330630;28;893;-73
2024/03/27 04:12:54;;;;;;;;;;;;;;;17.79;44.25;96681.09;10330424;28;897;-73
2024/03/27 04:17:50;;;;;;;;;;;;;;;17.78;44.07;96684.72;10330075;28;1183;-72
2024/03/27 04:22:46;;;;;;;;;;;;;;;17.78;44.00;96671.53;10330469;28;1893;-73
2024/03/27 04:27:42;;;;;;;;;;;;;;;17.78;44.17;96661.00;10329723;28;884;-72
2024/03/27 04:32:38;;;;;;;;;;;;;;;17.77;44.23;96667.25;10330067;28;1176;-72
2024/03/27 04:37:33;;;;;;;;;;;;;;;17.78;44.17;96674.19;10330589;28;838;-72
2024/03/27 04:42:29;;;;;;;;;;;;;;;17.77;43.98;96672.53;10330421;28;838;-73
2024/03/27 04:47:25;;;;;;;;;;;;;;;17.77;44.01;96667.25;10328897;28;1969;-72
2024/03/27 04:52:21;;;;;;;;;;;;;;;17.77;44.07;96673.34;10328731;28;1068;-72
2024/03/27 04:57:17;;;;;;;;;;;;;;;17.78;44.16;96671.53;10328525;28;949;-72
2024/03/27 05:02:13;;;;;;;;;;;;;;;17.79;44.04;96671.44;10328288;28;806;-72
2024/03/27 05:07:09;;;;;;;;;;;;;;;17.80;44.05;96667.81;10328653;28;1959;-72
2024/03/27 05:12:05;;;;;;;;;;;;;;;17.81;43.98;96664.19;10328139;28;880;-72
2024/03/27 05:17:02;;;;;;;;;;;;;;;17.82;44.29;96668.53;10329010;28;1020;-72
2024/03/27 05:21:58;;;;;;;;;;;;;;;17.84;44.02;96673.63;10328141;28;767;-72
2024/03/27 05:26:54;;;;;;;;;;;;;;;17.85;44.07;96670.03;10327216;28;1890;-73
2024/03/27 05:31:50;;;;;;;;;;;;;;;17.86;44.21;96669.06;10326596;28;1214;-73
2024/03/27 05:36:46;;;;;;;;;;;;;;;17.86;44.09;96667.25;10326918;28;973;-72
2024/03/27 05:41:45;;;;;;;;;;;;;;;17.89;44.28;96666.13;10326602;28;879;-73
2024/03/27 05:46:41;;;;;;;;;;;;;;;17.88;44.15;96691.66;10326559;28;1963;-74
2024/03/27 05:51:38;;;;;;;;;;;;;;;17.91;44.15;96699.28;10326347;28;997;-72
2024/03/27 05:56:34;;;;;;;;;;;;;;;17.93;43.89;96701.78;10326667;28;879;-74
2024/03/27 06:01:29;;;;;;;;;;;;;;;17.94;43.95;96711.34;10326118;28;802;-72
2024/03/27 06:06:25;;;;;;;;;;;;;;;17.94;43.98;96719.25;10325304;28;1886;-72
2024/03/27 06:11:21;;;;;;;;;;;;;;;17.96;43.94;96725.22;10325860;28;799;-73
2024/03/27 06:16:17;;;;;;;;;;;;;;;17.97;44.05;96711.03;10325004;28;1073;-72
2024/03/27 06:21:13;;;;;;;;;;;;;;;17.98;44.05;96701.34;10325060;28;885;-71
2024/03/27 06:26:09;;;;;;;;;;;;;;;18.00;44.04;96702.03;10325488;28;1944;-72
2024/03/27 06:31:08;;;;;;;;;;;;;;;18.00;44.21;96705.50;10326233;28;1152;-72
2024/03/27 06:36:04;;;;;;;;;;;;;;;18.02;44.07;96727.25;10325335;28;774;-74
2024/03/27 06:41:00;;;;;;;;;;;;;;;18.02;44.09;96734.34;10325841;28;959;-72
2024/03/27 06:45:56;;;;;;;;;;;;;;;18.03;44.02;96726.31;10324955;28;1906;-72
2024/03/27 06:50:52;;;;;;;;;;;;;;;18.06;44.04;96733.09;10325704;28;887;-72
2024/03/27 06:55:49;;;;;;;;;;;;;;;18.05;43.95;96734.06;10324870;28;796;-72
2024/03/27 07:00:45;;;;;;;;;;;;;;;18.05;43.94;96729.66;10325402;28;882;-72
2024/03/27 07:05:41;;;;;;;;;;;;;;;18.06;44.04;96752.38;10324391;28;1945;-72
2024/03/27 07:10:37;;;;;;;;;;;;;;;18.05;44.08;96742.81;10324640;28;767;-72
2024/03/27 07:15:33;;;;;;;;;;;;;;;18.04;44.02;96742.94;10324446;28;890;-74
2024/03/27 07:20:29;;;;;;;;;;;;;;;18.04;44.00;96735.88;10325174;28;873;-72
2024/03/27 07:25:25;;;;;;;;;;;;;;;18.02;44.02;96735.16;10324977;28;1952;-72
2024/03/27 07:30:20;;;;;;;;;;;;;;;18.01;44.02;96737.97;10331725;28;1485;-72
2024/03/27 07:35:16;;;;;;;;;;;;;;;18.00;43.88;96760.88;10331702;28;878;-72
2024/03/27 07:40:12;;;;;;;;;;;;;;;18.00;44.19;96758.22;10331500;28;885;-72
2024/03/27 07:45:08;;;;;;;;;;;;;;;18.00;44.21;96749.47;10331154;28;1969;-72
2024/03/27 07:50:05;;;;;;;;;;;;;;;18.00;44.09;96737.13;10331710;28;948;-75
2024/03/27 07:55:02;;;;;;;;;;;;;;;18.00;44.07;96738.91;10331097;28;878;-72
2024/03/27 07:59:57;;;;;;;;;;;;;;;18.00;44.05;96752.09;10331266;28;976;-67
2024/03/27 08:04:53;;;;;;;;;;;;;;;17.99;44.13;96732.81;10330533;28;1979;-71
2024/03/27 08:09:52;;;;;;;;;;;;;;;18.00;44.12;96733.66;10330420;28;857;-71
2024/03/27 08:14:48;;;;;;;;;;;;;;;18.00;44.03;96739.78;10331117;28;878;-71
2024/03/27 08:19:45;;;;;;;;;;;;;;;18.02;43.92;96731.72;10330707;28;877;-71
2024/03/27 08:24:41;;;;;;;;;;;;;;;18.01;43.90;96728.25;10330334;28;1902;-71
2024/03/27 08:29:36;;;;;;;;;;;;;;;18.02;43.86;96724.63;10329339;28;1371;-71
2024/03/27 08:34:32;;;;;;;;;;;;;;;18.04;43.82;96714.78;10329543;28;880;-71
2024/03/27 08:39:29;;;;;;;;;;;;;;;18.06;43.87;96720.75;10329206;28;883;-71
2024/03/27 08:44:25;;;;;;;;;;;;;;;18.06;44.04;96719.94;10330129;28;1981;-71
2024/03/27 08:49:21;;;;;;;;;;;;;;;18.08;44.01;96725.91;10328995;28;945;-71
2024/03/27 08:54:17;;;;;;;;;;;;;;;18.07;43.94;96732.94;10328217;28;944;-71
2024/03/27 08:59:13;;;;;;;;;;;;;;;18.09;43.82;96735.44;10311196;28;984;-71
2024/03/27 09:04:09;;;;;;;;;;;;;;;18.08;43.92;96729.34;10328231;28;1893;-71
2024/03/27 09:09:05;;;;;;;;;;;;;;;18.11;43.88;96725.59;10328139;28;853;-71
2024/03/27 09:14:01;;;;;;;;;;;;;;;18.10;43.85;96719.50;10327932;28;790;-71
2024/03/27 09:18:56;;;;;;;;;;;;;;;18.12;43.98;96729.88;10328464;28;878;-71
2024/03/27 09:23:52;;;;;;;;;;;;;;;18.12;44.12;96736.00;10327868;28;1889;-71
2024/03/27 09:28:48;;;;;;;;;;;;;;;18.13;43.90;96737.66;10327110;28;1266;-72
2024/03/27 09:33:44;;;;;;;;;;;;;;;18.13;43.89;96742.09;10327219;28;771;-71
2024/03/27 09:38:40;;;;;;;;;;;;;;;18.13;43.89;96742.09;10326926;28;771;-72
2024/03/27 09:43:36;;;;;;;;;;;;;;;18.15;44.10;96734.88;10327818;28;1914;-72
2024/03/27 09:48:32;;;;;;;;;;;;;;;18.16;44.02;96752.38;10325853;28;935;-71
2024/03/27 09:53:28;;;;;;;;;;;;;;;18.15;43.99;96754.16;10326345;28;940;-74
2024/03/27 09:58:24;;;;;;;;;;;;;;;18.16;43.93;96758.47;10326808;28;945;-72
2024/03/27 10:03:22;;;;;;;;;;;;;;;18.18;44.12;96750.41;10325401;28;1953;-71
2024/03/27 10:08:18;;;;;;;;;;;;;;;18.20;44.05;96742.38;10325976;28;895;-71
2024/03/27 10:13:14;;;;;;;;;;;;;;;18.18;44.08;96756.53;10325865;28;934;-71
2024/03/27 10:18:10;;;;;;;;;;;;;;;18.20;44.12;96753.72;10325761;28;790;-71
2024/03/27 10:23:06;;;;;;;;;;;;;;;18.21;44.37;96751.94;10325586;28;1960;-71
2024/03/27 10:28:01;;;;;;;;;;;;;;;18.22;44.12;96758.88;10324921;28;866;-71
2024/03/27 10:32:57;;;;;;;;;;;;;;;18.23;44.36;96756.09;10325369;28;1274;-71
2024/03/27 10:37:53;;;;;;;;;;;;;;;18.24;44.22;96759.56;10325928;28;826;-71
2024/03/27 10:42:50;;;;;;;;;;;;;;;18.27;44.30;96772.47;10325480;28;909;-72
2024/03/27 10:47:46;;;;;;;;;;;;;;;18.27;44.29;96759.28;10326237;28;1965;-71
2024/03/27 10:52:41;;;;;;;;;;;;;;;18.29;44.08;96765.25;10325720;28;835;-78
2024/03/27 10:57:37;;;;;;;;;;;;;;;18.31;44.28;96768.56;10324294;28;1164;-71
2024/03/27 11:02:33;;;;;;;;;;;;;;;18.33;44.05;96790.34;10330900;28;813;-72
2024/03/27 11:07:29;;;;;;;;;;;;;;;18.33;44.12;96811.44;10332816;28;1894;-73
2024/03/27 11:12:26;;;;;;;;;;;;;;;18.32;44.23;96807.16;10332648;28;925;-71
2024/03/27 11:17:22;;;;;;;;;;;;;;;18.32;44.27;96810.63;10332398;28;1052;-72
2024/03/27 11:22:18;;;;;;;;;;;;;;;18.33;44.18;96819.34;10332249;28;1130;-73
2024/03/27 11:27:14;;;;;;;;;;;;;;;18.34;44.26;96806.03;10332511;28;1894;-72
2024/03/27 11:32:10;;;;;;;;;;;;;;;18.36;44.22;96797.97;10332379;28;1124;-72
2024/03/27 11:37:05;;;;;;;;;;;;;;;18.34;44.33;96808.69;10333205;28;846;-72
2024/03/27 11:42:02;;;;;;;;;;;;;;;18.35;44.40;96841.16;10330929;28;1112;-72
2024/03/27 11:46:58;;;;;;;;;;;;;;;18.34;44.16;96840.31;10331267;28;1977;-72
2024/03/27 11:51:54;;;;;;;;;;;;;;;18.35;44.33;96838.50;10331786;28;925;-72
2024/03/27 11:56:50;;;;;;;;;;;;;;;18.34;44.39;96850.88;10331534;28;825;-71
2024/03/27 12:01:46;;;;;;;;;;;;;;;18.34;44.36;96856.13;10330831;28;899;-72
2024/03/27 12:06:42;;;;;;;;;;;;;;;18.35;44.25;96854.31;10331178;28;1901;-72
2024/03/27 12:11:38;;;;;;;;;;;;;;;18.36;44.52;96848.06;10328684;28;1109;-71
2024/03/27 12:16:34;;;;;;;;;;;;;;;18.37;44.38;96852.38;10328980;28;957;-78
2024/03/27 12:21:30;;;;;;;;;;;;;;;18.37;44.34;96871.69;10330056;28;913;-72
2024/03/27 12:26:26;;;;;;;;;;;;;;;18.38;44.24;96864.59;10329152;28;1967;-72
2024/03/27 12:31:22;;;;;;;;;;;;;;;18.38;44.25;96868.06;10329598;28;1267;-73
2024/03/27 12:36:18;;;;;;;;;;;;;;;18.39;44.41;96879.44;10328901;28;817;-72
2024/03/27 12:41:14;;;;;;;;;;;;;;;18.40;44.34;96870.56;10329178;28;835;-72
2024/03/27 12:46:10;;;;;;;;;;;;;;;18.39;44.30;96860.97;10329135;28;1979;-72
2024/03/27 12:51:06;;;;;;;;;;;;;;;18.39;44.26;96856.56;10328634;28;955;-73
2024/03/27 12:56:02;;;;;;;;;;;;;;;18.41;44.28;96861.66;10327414;28;1136;-72
2024/03/27 13:00:58;;;;;;;;;;;;;;;18.39;44.37;96880.28;10328344;28;829;-72
2024/03/27 13:05:54;;;;;;;;;;;;;;;18.39;44.38;96884.69;10327430;28;1902;-72
2024/03/27 13:10:50;;;;;;;;;;;;;;;18.40;44.54;96875.84;10327335;28;1012;-72
2024/03/27 13:15:46;;;;;;;;;;;;;;;18.41;44.33;96869.59;10326468;28;807;-72
2024/03/27 13:20:42;;;;;;;;;;;;;;;18.43;44.41;96880.00;10327511;28;865;-71
2024/03/27 13:25:37;;;;;;;;;;;;;;;18.40;44.21;96881.13;10325808;28;1897;-77
2024/03/27 13:30:33;;;;;;;;;;;;;;;18.42;44.36;96878.31;10327273;28;1112;-72
2024/03/27 13:35:29;;;;;;;;;;;;;;;18.42;44.38;96881.81;10326458;28;812;-74
2024/03/27 13:40:25;;;;;;;;;;;;;;;18.42;44.59;96889.72;10327578;28;889;-72
2024/03/27 13:45:21;;;;;;;;;;;;;;;18.41;44.47;96895.94;10325441;28;1973;-72
2024/03/27 13:50:17;;;;;;;;;;;;;;;18.42;44.43;96909.97;10326510;28;794;-73
2024/03/27 13:55:13;;;;;;;;;;;;;;;18.41;44.45;96919.69;10326193;28;938;-72
2024/03/27 14:00:09;;;;;;;;;;;;;;;18.41;44.56;96930.25;10326029;28;819;-72
2024/03/27 14:05:04;;;;;;;;;;;;;;;18.40;44.47;96942.59;10325825;28;1969;-72
2024/03/27 14:10:00;;;;;;;;;;;;;;;18.43;44.54;96935.38;10326282;28;980;-72
2024/03/27 14:14:56;;;;;;;;;;;;;;;18.43;44.50;96938.84;10326252;28;778;-72
2024/03/27 14:19:52;;;;;;;;;;;;;;;18.45;44.46;96939.56;10326013;28;957;-72
2024/03/27 14:24:48;;;;;;;;;;;;;;;18.47;44.26;96945.53;10325885;28;1957;-72
2024/03/27 14:29:44;;;;;;;;;;;;;;;18.46;44.53;96950.94;10325318;28;1500;-72
2024/03/27 14:34:40;;;;;;;;;;;;;;;18.45;44.49;96965.94;10324809;28;797;-72
2024/03/27 14:39:35;;;;;;;;;;;;;;;18.44;44.59;96961.59;10325081;28;885;-72
2024/03/27 14:44:31;;;;;;;;;;;;;;;18.45;44.65;96962.47;10324870;28;1909;-72
2024/03/27 14:49:29;;;;;;;;;;;;;;;18.45;44.57;96968.56;10325486;28;896;-72
2024/03/27 14:54:25;;;;;;;;;;;;;;;18.44;44.57;96966.88;10324701;28;911;-72
2024/03/27 14:59:21;;;;;;;;;;;;;;;18.43;44.48;96975.78;10325335;28;1032;-73
2024/03/27 15:04:16;;;;;;;;;;;;;;;18.43;44.46;96978.41;10324436;28;1898;-74
2024/03/27 15:09:12;;;;;;;;;;;;;;;18.44;44.66;96979.22;10324487;28;874;-72
2024/03/27 15:14:08;;;;;;;;;;;;;;;18.43;44.55;96981.03;10324929;28;850;-72
2024/03/27 15:19:04;;;;;;;;;;;;;;;18.42;44.69;96971.47;10324296;28;949;-72
2024/03/27 15:24:01;;;;;;;;;;;;;;;18.42;44.55;96975.91;10323490;28;1967;-72
2024/03/27 15:28:57;;;;;;;;;;;;;;;18.40;44.55;96997.97;10323667;28;1250;-71
2024/03/27 15:33:53;;;;;;;;;;;;;;;18.40;44.51;97010.34;10323457;28;1202;-72
2024/03/27 15:38:49;;;;;;;;;;;;;;;18.39;44.57;97006.00;10324526;28;763;-71
2024/03/27 15:43:45;;;;;;;;;;;;;;;18.38;44.69;97015.72;10324391;28;1975;-72
2024/03/27 15:48:44;;;;;;;;;;;;;;;18.38;44.76;97022.81;10329270;28;1654;-72
2024/03/27 15:53:41;;;;;;;;;;;;;;;18.37;44.45;97029.06;10331903;28;853;-72
2024/03/27 15:58:37;;;;;;;;;;;;;;;18.37;44.63;97029.91;10327804;28;1128;-71
2024/03/27 16:03:33;;;;;;;;;;;;;;;18.36;44.73;97028.22;10330146;28;1969;-74
2024/03/27 16:08:29;;;;;;;;;;;;;;;18.36;44.82;97027.38;10330382;28;874;-72
2024/03/27 16:13:25;;;;;;;;;;;;;;;18.36;44.76;97033.50;10330786;28;857;-72
2024/03/27 16:18:21;;;;;;;;;;;;;;;18.37;44.64;97037.00;10330636;28;861;-72
2024/03/27 16:23:17;;;;;;;;;;;;;;;18.37;44.64;97034.34;10329806;28;1906;-72
2024/03/27 16:28:13;;;;;;;;;;;;;;;18.36;44.61;97012.41;10329826;28;979;-72
2024/03/27 16:33:09;;;;;;;;;;;;;;;18.38;44.68;97020.19;10329344;28;1136;-72
2024/03/27 16:38:05;;;;;;;;;;;;;;;18.37;44.62;97032.53;10329906;28;883;-72
2024/03/27 16:43:01;;;;;;;;;;;;;;;18.38;44.65;97034.19;10329036;28;865;-72
2024/03/27 16:47:56;;;;;;;;;;;;;;;18.39;44.75;97042.94;10328814;28;1955;-73
2024/03/27 16:52:52;;;;;;;;;;;;;;;18.40;44.83;97055.16;10328689;28;767;-72
2024/03/27 16:57:48;;;;;;;;;;;;;;;18.39;44.83;97058.75;10328177;28;779;-72
2024/03/27 17:02:44;;;;;;;;;;;;;;;18.40;44.78;97060.44;10328307;28;893;-72
2024/03/27 17:07:40;;;;;;;;;;;;;;;18.40;44.84;97042.81;10328674;28;1893;-72
2024/03/27 17:12:36;;;;;;;;;;;;;;;18.40;44.89;97034.91;10328385;28;913;-72
2024/03/27 17:17:31;;;;;;;;;;;;;;;18.42;44.88;97045.31;10328830;28;1015;-72
2024/03/27 17:22:27;;;;;;;;;;;;;;;18.43;44.87;97044.34;10327434;28;977;-73
2024/03/27 17:27:23;;;;;;;;;;;;;;;18.44;45.07;97053.91;10327355;28;1961;-72
2024/03/27 17:32:19;;;;;;;;;;;;;;;18.43;45.01;97044.34;10326549;28;1340;-73
2024/03/27 17:37:15;;;;;;;;;;;;;;;18.44;44.98;97037.25;10327534;28;790;-73
2024/03/27 17:42:11;;;;;;;;;;;;;;;18.45;44.91;97036.31;10327302;28;841;-73
2024/03/27 17:47:07;;;;;;;;;;;;;;;18.45;45.04;97033.66;10327308;28;1968;-73
2024/03/27 17:52:02;;;;;;;;;;;;;;;18.45;44.89;97028.41;10326903;28;906;-73
2024/03/27 17:56:58;;;;;;;;;;;;;;;18.46;44.90;97033.50;10326360;28;920;-73
2024/03/27 18:01:54;;;;;;;;;;;;;;;18.46;45.03;97041.44;10326028;28;909;-73
2024/03/27 18:06:50;;;;;;;;;;;;;;;18.46;44.76;97044.06;10326385;28;1890;-73
2024/03/27 18:11:46;;;;;;;;;;;;;;;18.47;44.99;97050.16;10324612;28;908;-73
2024/03/27 18:16:42;;;;;;;;;;;;;;;18.47;44.86;97051.03;10325575;28;908;-73
2024/03/27 18:21:38;;;;;;;;;;;;;;;18.47;44.73;97053.66;10326079;28;870;-73
2024/03/27 18:26:33;;;;;;;;;;;;;;;18.48;44.92;97050.03;10325278;28;1949;-73
2024/03/27 18:31:29;;;;;;;;;;;;;;;18.48;44.77;97047.41;10324827;28;1512;-73
2024/03/27 18:36:25;;;;;;;;;;;;;;;18.49;44.85;97042.97;10325811;28;1257;-73
2024/03/27 18:41:21;;;;;;;;;;;;;;;18.49;44.84;97035.88;10325676;28;858;-73
2024/03/27 18:46:17;;;;;;;;;;;;;;;18.50;44.77;97032.28;10324245;28;1914;-73
2024/03/27 18:51:13;;;;;;;;;;;;;;;18.51;44.77;97039.22;10325447;28;819;-73
2024/03/27 18:56:09;;;;;;;;;;;;;;;18.51;44.84;97030.47;10324697;28;1509;-73
2024/03/27 19:01:05;;;;;;;;;;;;;;;18.51;44.82;97022.56;10325243;28;865;-73
2024/03/27 19:06:01;;;;;;;;;;;;;;;18.52;44.83;97021.56;10325094;28;1901;-74
2024/03/27 19:10:57;;;;;;;;;;;;;;;18.51;44.78;97012.84;10324750;28;780;-74
2024/03/27 19:15:53;;;;;;;;;;;;;;;18.52;44.79;97014.53;10324318;28;953;-74
2024/03/27 19:20:49;;;;;;;;;;;;;;;18.51;44.94;97015.47;10325702;28;1016;-73
2024/03/27 19:25:45;;;;;;;;;;;;;;;18.52;44.69;97014.53;10332008;28;1890;-74
2024/03/27 19:30:41;;;;;;;;;;;;;;;18.52;44.96;97017.16;10332380;28;1420;-73
2024/03/27 19:35:37;;;;;;;;;;;;;;;18.53;44.76;97005.63;10331608;28;977;-74
2024/03/27 19:40:33;;;;;;;;;;;;;;;18.54;44.97;97020.47;10331491;28;942;-74
2024/03/27 19:45:29;;;;;;;;;;;;;;;18.54;44.85;97014.38;10330637;28;1902;-73
2024/03/27 19:50:25;;;;;;;;;;;;;;;18.54;44.83;96994.09;10331713;28;830;-74
2024/03/27 19:55:20;;;;;;;;;;;;;;;18.56;44.80;96996.59;10331575;28;806;-74
2024/03/27 20:00:16;;;;;;;;;;;;;;;18.54;44.92;96986.19;10331350;28;913;-74
2024/03/27 20:05:12;;;;;;;;;;;;;;;18.56;44.87;96986.06;10329933;28;1961;-73
2024/03/27 20:10:08;;;;;;;;;;;;;;;18.56;44.82;96988.69;10330179;28;806;-74
2024/03/27 20:15:04;;;;;;;;;;;;;;;18.57;44.73;96983.25;10330180;28;795;-74
2024/03/27 20:20:00;;;;;;;;;;;;;;;18.57;44.64;96982.44;10330787;28;809;-73
2024/03/27 20:24:56;;;;;;;;;;;;;;;18.56;44.88;96980.78;10330559;28;1890;-74
2024/03/27 20:29:52;;;;;;;;;;;;;;;18.57;45.01;96985.06;10329247;28;1133;-74
2024/03/27 20:34:48;;;;;;;;;;;;;;;18.57;44.80;96977.16;10328898;28;785;-73
2024/03/27 20:39:43;;;;;;;;;;;;;;;18.57;44.78;96977.97;10329177;28;1090;-74
2024/03/27 20:44:39;;;;;;;;;;;;;;;18.56;44.75;96975.50;10328998;28;1906;-74
2024/03/27 20:49:35;;;;;;;;;;;;;;;18.56;44.75;96983.41;10328856;28;1059;-73
2024/03/27 20:54:31;;;;;;;;;;;;;;;18.54;44.79;96985.34;10329323;28;886;-73
2024/03/27 20:59:27;;;;;;;;;;;;;;;18.53;44.74;96981.06;10328419;28;921;-73
2024/03/27 21:04:23;;;;;;;;;;;;;;;18.52;44.86;96972.31;10327606;28;1894;-73
2024/03/27 21:09:19;;;;;;;;;;;;;;;18.52;44.80;96967.03;10328012;28;988;-73
2024/03/27 21:14:14;;;;;;;;;;;;;;;18.51;44.73;96962.72;10328061;28;1044;-74
2024/03/27 21:19:10;;;;;;;;;;;;;;;18.50;44.84;96961.06;10310832;28;727;-73
2024/03/27 21:24:06;;;;;;;;;;;;;;;18.49;44.70;96951.47;10327235;28;1959;-72
2024/03/27 21:29:02;;;;;;;;;;;;;;;18.49;44.68;96943.56;10328044;28;1100;-72
2024/03/27 21:33:58;;;;;;;;;;;;;;;18.48;44.69;96933.16;10327572;28;833;-73
2024/03/27 21:38:54;;;;;;;;;;;;;;;18.48;44.76;96931.34;10328354;28;904;-73
2024/03/27 21:43:50;;;;;;;;;;;;;;;18.46;44.72;96930.66;10326724;28;1965;-73
2024/03/27 21:48:46;;;;;;;;;;;;;;;18.45;44.71;96914.97;10326894;28;908;-73
2024/03/27 21:53:41;;;;;;;;;;;;;;;18.44;44.52;96916.75;10327321;28;923;-73
2024/03/27 21:58:37;;;;;;;;;;;;;;;18.42;44.61;96910.81;10326432;28;932;-73
2024/03/27 22:03:33;;;;;;;;;;;;;;;18.42;44.68;96907.31;10326481;28;1957;-73
2024/03/27 22:08:29;;;;;;;;;;;;;;;18.40;44.71;96896.94;10326129;28;917;-73
2024/03/27 22:13:25;;;;;;;;;;;;;;;18.39;44.65;96897.88;10325403;28;1090;-73
2024/03/27 22:18:21;;;;;;;;;;;;;;;18.38;44.62;96898.88;10325834;28;1024;-73
2024/03/27 22:23:17;;;;;;;;;;;;;;;18.36;44.59;96900.81;10326361;28;858;-73
2024/03/27 22:28:12;;;;;;;;;;;;;;;18.34;44.79;96886.97;10325569;28;1894;-73
2024/03/27 22:33:08;;;;;;;;;;;;;;;18.33;44.72;96883.47;10325334;28;1302;-73
2024/03/27 22:38:04;;;;;;;;;;;;;;;18.31;44.83;96892.47;10325441;28;774;-73
2024/03/27 22:43:00;;;;;;;;;;;;;;;18.30;44.84;96880.28;10325343;28;806;-73
2024/03/27 22:47:56;;;;;;;;;;;;;;;18.29;44.69;96878.63;10325163;28;1964;-73
2024/03/27 22:52:52;;;;;;;;;;;;;;;18.28;44.62;96884.84;10325106;28;913;-73
2024/03/27 22:57:48;;;;;;;;;;;;;;;18.27;44.68;96876.13;10329932;28;957;-73
2024/03/27 23:02:43;;;;;;;;;;;;;;;18.26;44.57;96865.69;10333241;28;913;-72
2024/03/27 23:07:39;;;;;;;;;;;;;;;18.26;44.55;96868.34;10333030;28;1886;-73
2024/03/27 23:12:35;;;;;;;;;;;;;;;18.23;44.70;96858.91;10332975;28;893;-73
2024/03/27 23:17:31;;;;;;;;;;;;;;;18.24;44.77;96865.03;10332727;28;878;-73
2024/03/27 23:22:27;;;;;;;;;;;;;;;18.20;44.74;96863.63;10333123;28;873;-73
2024/03/27 23:27:23;;;;;;;;;;;;;;;18.20;44.81;96866.28;10332788;28;1902;-73
2024/03/27 23:32:19;;;;;;;;;;;;;;;18.19;44.87;96868.06;10332376;28;1425;-73
2024/03/27 23:37:14;;;;;;;;;;;;;;;18.18;44.74;96863.75;10331205;28;1238;-73
2024/03/27 23:42:10;;;;;;;;;;;;;;;18.16;44.60;96869.19;10331744;28;822;-73
2024/03/27 23:47:06;;;;;;;;;;;;;;;18.15;44.79;96869.31;10331516;28;1914;-73
2024/03/27 23:52:02;;;;;;;;;;;;;;;18.16;44.63;96871.00;10330764;28;834;-73
2024/03/27 23:56:58;;;;;;;;;;;;;;;18.14;44.64;96871.13;10331803;28;810;-73
